Headquarters, Valles Caldera, New Mexico Weather observations

Data are for 10 minute period ending at time listed.
 Day   Time   Solar   Ave.   Ave.  Ave.  Vector  Max.   Baro.   Total    
  of    of     Rad.   Air    Rel.  Wind   Wind   Wind  Press.  Precip.   
Year   Day            Temp.  Hum.  Speed  Dir.   Gust                    
2015   (MST)  Kw/m2    F      %     mph   deg.    mph    mb.     in.     
-------------------------------------------------------------------------
  87    0:20   0.00   40.2    44    3.9   306     7.8   743.6    0.00 
  87    0:30   0.00   40.9    43    3.7   300     6.6   743.6    0.00 
  87    0:40   0.00   42.6    39    4.8   314    10.2   743.6    0.00 
  87    0:50   0.00   44.0    36    4.6   312    10.8   743.5    0.00 
  87    1:00   0.00   44.6    34    5.5   308    11.3   743.3    0.00 
  87    1:10   0.00   45.3    33    5.3   327    10.2   743.3    0.00 
  87    1:20   0.00   44.1    35    3.9   327     9.0   743.2    0.00 
  87    1:30   0.00   45.1    33    6.8   307    16.1   743.1    0.00 
  87    1:40   0.00   45.1    34    5.1   354     9.6   743.1    0.00 
  87    1:50   0.00   35.3    50    2.6    19     5.4   743.1    0.00 
  87    2:00   0.00   33.5    55    2.6    21     4.8   743.0    0.00 
  87    2:10   0.00   32.8    57    2.7     8     4.8   743.0    0.00 
  87    2:20   0.00   33.4    55    3.0   208     5.4   743.0    0.00 
  87    2:30   0.00   33.4    56    2.3   260     5.4   743.0    0.00 
  87    2:40   0.00   34.2    55    2.1   255     5.4   743.1    0.00 
  87    2:50   0.00   34.3    54    1.8   278     3.6   743.1    0.00 
  87    3:00   0.00   34.7    55    1.5   280     3.6   743.1    0.00 
  87    3:10   0.00   34.1    55    1.9   249     3.6   743.1    0.00 
  87    3:20   0.00   33.6    56    2.5   279     4.2   743.1    0.00 
  87    3:30   0.00   33.2    57    2.5   256     4.8   743.3    0.00 
  87    3:40   0.00   32.5    59    3.5   290     5.4   743.2    0.00 
  87    3:50   0.00   31.9    60    3.5   267     4.8   743.2    0.00 
  87    4:00   0.00   31.7    61    3.3   268     4.8   743.1    0.00 
  87    4:10   0.00   32.1    61    1.4   317     3.6   743.2    0.00 
  87    4:20   0.00   30.2    65    1.4     5     3.6   743.3    0.00 
  87    4:30   0.00   29.3    68    1.9   240     3.6   743.4    0.00 
  87    4:40   0.00   30.3    65    1.7   292     3.6   743.4    0.00 
  87    4:50   0.00   30.8    63    1.9   301     4.8   743.5    0.00 
  87    5:00   0.00   30.7    63    2.3   260     4.8   743.6    0.00 
  87    5:10   0.00   30.7    63    2.8   242     4.8   743.7    0.00 
  87    5:20   0.00   30.7    62    3.2   261     5.4   743.7    0.00 
  87    5:30   0.00   30.1    64    2.4   359     4.8   743.9    0.00 
  87    5:40   0.00   26.5    73    1.8   312     5.4   744.0    0.00 
  87    5:50   0.00   26.3    74    3.2   232     5.4   744.1    0.00 
  87    6:00   0.00   28.5    70    2.8   278     4.8   744.1    0.00 
  87    6:10   0.01   29.4    67    2.0   246     4.2   744.2    0.00 
  87    6:20   0.02   30.5    66    2.3   267     3.6   744.2    0.00 
  87    6:30   0.05   33.8    63    2.1   280     3.0   744.3    0.00 
  87    6:40   0.08   36.2    60    3.3   220     4.2   744.3    0.00 
  87    6:50   0.11   38.0    58    1.6   183     4.2   744.3    0.00 
  87    7:00   0.14   38.5    57    1.4   104     3.0   744.2    0.00 
  87    7:10   0.17   37.1    59    1.6    72     3.0   744.3    0.00 
  87    7:20   0.20   38.2    58    1.8    93     3.0   744.3    0.00 
  87    7:30   0.24   40.6    53    1.2   146     2.4   744.3    0.00 
  87    7:40   0.27   42.1    52    2.2   154     3.6   744.4    0.00 
  87    7:50   0.30   42.9    51    2.9   112     6.0   744.5    0.00 
  87    8:00   0.33   43.5    53    2.3    91     3.6   744.6    0.00 
  87    8:10   0.36   44.5    51    3.0    79     4.8   744.7    0.00 
  87    8:20   0.40   45.2    49    3.3    84     4.8   744.8    0.00 
  87    8:30   0.43   46.3    46    3.3    87     5.4   744.8    0.00 
  87    8:40   0.46   49.1    40    3.1    88     6.6   744.9    0.00 
  87    8:50   0.49   50.4    37    4.6    77     7.2   744.9    0.00 
  87    9:00   0.52   52.3    34    4.6    78     6.6   744.8    0.00 
  87    9:10   0.54   54.9    25    6.1    74    12.5   744.8    0.00 
  87    9:20   0.57   56.2    18    5.3   336    13.7   744.9    0.00 
  87    9:30   0.60   56.8    18    7.0   327    17.3   744.9    0.00 
  87    9:40   0.62   57.4    18    4.8   345    14.3   744.9    0.00 
  87    9:50   0.64   57.5    19    7.5     1    11.9   744.9    0.00 
  87   10:00   0.66   57.1    19    6.1   346    13.1   744.8    0.00 
  87   10:10   0.68   58.6    18    3.9   358     8.4   744.8    0.00 
  87   10:20   0.70   59.6    18    5.9    44    12.5   744.7    0.00 
  87   10:30   0.72   59.3    17    6.3    30    11.3   744.6    0.00 
  87   10:40   0.73   59.5    17    6.1    77    11.3   744.5    0.00 
  87   10:50   0.75   61.5    17    8.7   200    14.3   744.4    0.00 
  87   11:00   0.76   62.0    16    9.0   216    16.1   744.4    0.00 
  87   11:10   0.77   62.1    16    8.1   202    17.9   744.3    0.00 
  87   11:20   0.78   62.0    16    8.2   235    22.7   744.3    0.00 
  87   11:30   0.79   62.3    16    9.1   242    16.7   744.2    0.00 
  87   11:40   0.80   63.2    16    9.7   206    20.3   744.1    0.00 
  87   11:50   0.80   63.0    16   11.5   248    18.5   744.0    0.00 
  87   12:00   0.81   61.5    15    7.0   290    16.7   744.1    0.00 
  87   12:10   0.81   62.2    16    6.1   303    13.7   744.0    0.00 
  87   12:20   0.81   63.2    17    8.8   231    17.3   743.9    0.00 
  87   12:30   0.81   62.1    17    6.0   313    14.9   743.9    0.00 
  87   12:40   0.80   61.2    17    5.3   310    11.9   743.8    0.00 
  87   12:50   0.80   62.8    16    7.0   233    20.9   743.6    0.00 
  87   13:00   0.79   63.1    16    7.7   266    13.7   743.6    0.00 
  87   13:10   0.79   61.6    16    5.7   272    11.3   743.5    0.00 
  87   13:20   0.78   63.1    15    7.6   273    18.5   743.5    0.00 
  87   13:30   0.76   61.9    16    7.4    42    15.5   743.3    0.00 
  87   13:40   0.75   62.1    15    9.0   312    18.5   743.1    0.00 
  87   13:50   0.74   61.3    15    7.8   314    17.3   743.1    0.00 
  87   14:00   0.72   61.3    16    7.9   341    17.3   742.9    0.00 
  87   14:10   0.71   63.0    16    9.3   241    20.3   742.7    0.00 
  87   14:20   0.69   63.2    15    7.6   247    19.7   742.7    0.00 
  87   14:30   0.67   63.9    14   11.8   226    23.9   742.6    0.00 
  87   14:40   0.65   62.9    15   11.8   240    23.9   742.6    0.00 
  87   14:50   0.62   62.9    14   13.0   226    22.7   742.6    0.00 
  87   15:00   0.60   62.7    15   10.2   230    19.1   742.5    0.00 
  87   15:10   0.58   63.9    14    8.5   248    16.7   742.4    0.00 
  87   15:20   0.55   62.5    14    8.6   307    17.3   742.4    0.00 
  87   15:30   0.52   62.9    14    6.9   254    18.5   742.4    0.00 
  87   15:40   0.50   63.6    13    8.6   234    25.0   742.3    0.00 
  87   15:50   0.47   63.2    12    9.7   242    22.7   742.3    0.00 
  87   16:00   0.44   62.5    12   11.5   243    20.9   742.3    0.00 
  87   16:10   0.41   62.0    12   12.9   232    23.3   742.3    0.00 
  87   16:20   0.38   61.5    12   12.8   224    26.2   742.2    0.00 
  87   16:30   0.34   62.0    12    9.6   233    22.1   742.2    0.00 
  87   16:40   0.31   61.7    12    5.7   269    14.9   742.3    0.00 
  87   16:50   0.28   61.6    12    5.4   256    14.3   742.3    0.00 
  87   17:00   0.25   61.1    12    5.5   273    11.3   742.4    0.00 
  87   17:10   0.21   60.0    12    6.8   273    11.9   742.4    0.00 
  87   17:20   0.18   59.8    13    7.2   238    13.1   742.4    0.00 
  87   17:30   0.15   58.5    14    7.5   289    17.3   742.4    0.00 
  87   17:40   0.01   57.3    14    8.0   278    16.1   742.5    0.00 
  87   17:50   0.01   55.7    15    5.5   268    11.3   742.5    0.00 
  87   18:00   0.01   54.7    16    5.8   271    10.8   742.5    0.00 
  87   18:10   0.01   54.5    16    8.0   270    14.9   742.5    0.00 
  87   18:20   0.01   55.0    15    6.5   265    10.8   742.5    0.00 
  87   18:30   0.00   53.8    17    6.0   254    10.8   742.6    0.00 
  87   18:40   0.00   52.4    19    5.7   257    10.8   742.6    0.00 
  87   18:50   0.00   50.9    21    5.3   258     7.2   742.6    0.00 
  87   19:00   0.00   49.2    25    5.3   264     8.4   742.6    0.00 
  87   19:10   0.00   46.9    29    5.6   271     9.6   742.7    0.00 
  87   19:20   0.00   47.0    28    5.4   268     7.2   742.7    0.00 
  87   19:30   0.00   47.8    27    5.4   270    10.2   742.8    0.00 
  87   19:40   0.00   46.6    29    5.0   268     7.2   742.8    0.00 
  87   19:50   0.00   45.9    31    5.0   271     7.2   742.9    0.00 
  87   20:00   0.00   46.0    31    5.1   274     8.4   742.9    0.00 
  87   20:10   0.00   47.0    29    5.3   273     7.8   742.9    0.00 
  87   20:20   0.00   48.5    26    6.6   272    11.3   742.9    0.00 
  87   20:30   0.00   50.2    22    6.3   258    11.9   742.9    0.00 
  87   20:40   0.00   51.3    20    6.9   258    12.5   742.9    0.00 
  87   20:50   0.00   50.7    20    6.6   258     9.6   742.9    0.00 
  87   21:00   0.00   51.1    20    5.6   263    12.5   743.1    0.00 
  87   21:10   0.00   50.9    21    5.8   269    11.3   743.1    0.00 
  87   21:20   0.00   50.1    23    5.5   274     9.6   743.1    0.00 
  87   21:30   0.00   50.2    22    6.1   268    13.7   743.1    0.00 
  87   21:40   0.00   49.9    22    5.6   281    10.2   743.2    0.00 
  87   21:50   0.00   50.2    21    5.9   280    12.5   743.2    0.00 
  87   22:00   0.00   49.7    21    6.0   278    11.9   743.2    0.00 
  87   22:10   0.00   51.0    19    6.5   271    11.9   743.2    0.00 
  87   22:20   0.00   50.5    20    6.0   279    10.2   743.1    0.00 
  87   22:30   0.00   50.6    20    5.9   269    12.5   743.1    0.00 
  87   22:40   0.00   50.6    20    7.0   267    13.7   743.2    0.00 
  87   22:50   0.00   51.3    20    7.1   285    13.7   743.2    0.00 
  87   23:00   0.00   51.4    20    7.1   271    14.3   743.2    0.00 
  87   23:10   0.00   50.6    20    6.2   268    10.2   743.1    0.00 
  87   23:20   0.00   50.0    20    6.7   273    12.5   743.1    0.00 
  87   23:30   0.00   50.5    20    6.6   264    13.1   743.1    0.00 
  87   23:40   0.00   50.1    20    7.2   261    17.3   743.1    0.00 
  87   23:50   0.00   50.2    20    6.9   263    13.1   743.2    0.00 
  88    0:00   0.00   49.8    20    6.5   260    12.5   743.2    0.00 
  88    0:10   0.00   49.5    21    6.5   266    13.1   743.2    0.00 

Return to Headquarters, Valles Caldera graphs page.


Western Regional Climate Center,wrcc@dri.edu